RJSF/FKS METAR and TAF weather

Enter ICAO airport designator
Station Type Date Time Source
RJSF METAR 2021/09/24 06:00 UTC NOAA

RJSF 240600Z 35008KT 9999 FEW015 BKN050 BKN070 22/17 Q1019


Station Type Date Time Source
RJSF Decoded METAR 2021/09/24 06:00 UTC NOAA

Fukushima Airport, Japan (RJSF) 37-14N 140-26E 375M
Sep 24, 2021 - 02:00 AM EDT / 2021.09.24 0600 UTC
Wind: from the N (350 degrees) at 9 MPH (8 KT):0
Visibility: greater than 7 mile(s):0
Sky conditions: mostly cloudy
Temperature: 71 F (22 C)
Dew Point: 62 F (17 C)
Relative Humidity: 73%
Pressure (altimeter): 30.09 in. Hg (1019 hPa)
ob: RJSF 240600Z 35008KT 9999 FEW015 BKN050 BKN070 22/17 Q1019
cycle: 6

Station Type Date Time Source
RJSF TAF 2021/09/24 06:30 UTC NOAA

TAF RJSF 240511Z 2406/2512 34010KT 9999 FEW020 SCT040
BECMG 2500/2503 12005KT

Example: see airport list